sensor_id;sensor_type;location;lat;lon;timestamp;temperature;humidity
64255;DHT22;50593;44.748;19.692;2022-08-21T00:00:18;29.50;52.50
64255;DHT22;50593;44.748;19.692;2022-08-21T00:01:00;29.50;52.70
64255;DHT22;50593;44.748;19.692;2022-08-21T00:01:22;29.50;52.80
64255;DHT22;50593;44.748;19.692;2022-08-21T00:01:44;29.50;52.70
64255;DHT22;50593;44.748;19.692;2022-08-21T00:02:13;29.50;52.70
64255;DHT22;50593;44.748;19.692;2022-08-21T00:02:34;29.50;52.70
64255;DHT22;50593;44.748;19.692;2022-08-21T00:02:55;29.50;52.60
64255;DHT22;50593;44.748;19.692;2022-08-21T00:03:16;29.50;52.80
64255;DHT22;50593;44.748;19.692;2022-08-21T00:03:37;29.50;52.40
64255;DHT22;50593;44.748;19.692;2022-08-21T00:03:57;29.50;52.30
64255;DHT22;50593;44.748;19.692;2022-08-21T00:04:18;29.50;52.70
64255;DHT22;50593;44.748;19.692;2022-08-21T00:04:39;29.50;52.40
64255;DHT22;50593;44.748;19.692;2022-08-21T00:05:21;29.50;52.30
64255;DHT22;50593;44.748;19.692;2022-08-21T00:05:43;29.60;52.50
64255;DHT22;50593;44.748;19.692;2022-08-21T00:06:04;29.50;52.40
64255;DHT22;50593;44.748;19.692;2022-08-21T00:06:25;29.60;52.50
64255;DHT22;50593;44.748;19.692;2022-08-21T00:06:45;29.50;52.30
64255;DHT22;50593;44.748;19.692;2022-08-21T00:07:06;29.50;52.30
64255;DHT22;50593;44.748;19.692;2022-08-21T00:07:26;29.60;52.40
64255;DHT22;50593;44.748;19.692;2022-08-21T00:07:47;29.60;52.60
64255;DHT22;50593;44.748;19.692;2022-08-21T00:08:28;29.50;52.20
64255;DHT22;50593;44.748;19.692;2022-08-21T00:08:51;29.60;52.50
64255;DHT22;50593;44.748;19.692;2022-08-21T00:09:11;29.50;52.30
64255;DHT22;50593;44.748;19.692;2022-08-21T00:09:32;29.50;52.20
64255;DHT22;50593;44.748;19.692;2022-08-21T00:09:52;29.50;52.40
64255;DHT22;50593;44.748;19.692;2022-08-21T00:10:13;29.60;52.30
64255;DHT22;50593;44.748;19.692;2022-08-21T00:10:34;29.60;52.30
64255;DHT22;50593;44.748;19.692;2022-08-21T00:10:55;29.50;52.40
64255;DHT22;50593;44.748;19.692;2022-08-21T00:11:15;29.50;52.30
64255;DHT22;50593;44.748;19.692;2022-08-21T00:11:36;29.50;52.20
64255;DHT22;50593;44.748;19.692;2022-08-21T00:11:58;29.60;52.20
64255;DHT22;50593;44.748;19.692;2022-08-21T00:12:40;29.60;52.20
64255;DHT22;50593;44.748;19.692;2022-08-21T00:13:03;29.60;52.30
64255;DHT22;50593;44.748;19.692;2022-08-21T00:13:24;29.60;52.20
64255;DHT22;50593;44.748;19.692;2022-08-21T00:14:06;29.60;52.20
64255;DHT22;50593;44.748;19.692;2022-08-21T00:14:27;29.60;52.40
64255;DHT22;50593;44.748;19.692;2022-08-21T00:14:47;29.60;52.30
64255;DHT22;50593;44.748;19.692;2022-08-21T00:15:30;29.60;52.10
64255;DHT22;50593;44.748;19.692;2022-08-21T00:16:11;29.60;52.10
64255;DHT22;50593;44.748;19.692;2022-08-21T00:16:32;29.60;52.20
64255;DHT22;50593;44.748;19.692;2022-08-21T00:17:15;29.60;52.20
64255;DHT22;50593;44.748;19.692;2022-08-21T00:17:35;29.60;52.10
64255;DHT22;50593;44.748;19.692;2022-08-21T00:17:56;29.60;52.10
64255;DHT22;50593;44.748;19.692;2022-08-21T00:18:17;29.60;52.10
64255;DHT22;50593;44.748;19.692;2022-08-21T00:18:38;29.60;52.10
64255;DHT22;50593;44.748;19.692;2022-08-21T00:18:58;29.60;52.00
64255;DHT22;50593;44.748;19.692;2022-08-21T00:19:19;29.60;52.00
64255;DHT22;50593;44.748;19.692;2022-08-21T00:20:06;29.60;52.00
64255;DHT22;50593;44.748;19.692;2022-08-21T00:20:28;29.60;52.10
64255;DHT22;50593;44.748;19.692;2022-08-21T00:20:49;29.60;52.00
64255;DHT22;50593;44.748;19.692;2022-08-21T00:21:11;29.60;52.00
64255;DHT22;50593;44.748;19.692;2022-08-21T00:21:32;29.60;52.00
64255;DHT22;50593;44.748;19.692;2022-08-21T00:21:53;29.60;51.90
64255;DHT22;50593;44.748;19.692;2022-08-21T00:22:14;29.60;51.90
64255;DHT22;50593;44.748;19.692;2022-08-21T00:22:35;29.60;52.20
64255;DHT22;50593;44.748;19.692;2022-08-21T00:22:55;29.60;52.00
64255;DHT22;50593;44.748;19.692;2022-08-21T00:23:17;29.60;51.90
64255;DHT22;50593;44.748;19.692;2022-08-21T00:23:37;29.60;52.20
64255;DHT22;50593;44.748;19.692;2022-08-21T00:23:58;29.60;52.00
64255;DHT22;50593;44.748;19.692;2022-08-21T00:24:19;29.60;52.00
64255;DHT22;50593;44.748;19.692;2022-08-21T00:24:39;29.60;51.90
64255;DHT22;50593;44.748;19.692;2022-08-21T00:25:00;29.60;52.00
64255;DHT22;50593;44.748;19.692;2022-08-21T00:25:42;29.60;52.00
64255;DHT22;50593;44.748;19.692;2022-08-21T00:26:03;29.60;52.00
64255;DHT22;50593;44.748;19.692;2022-08-21T00:26:24;29.70;52.00
64255;DHT22;50593;44.748;19.692;2022-08-21T00:26:44;29.70;52.00
64255;DHT22;50593;44.748;19.692;2022-08-21T00:27:05;29.60;51.90
64255;DHT22;50593;44.748;19.692;2022-08-21T00:27:46;29.70;52.00
64255;DHT22;50593;44.748;19.692;2022-08-21T00:28:07;29.60;51.80
64255;DHT22;50593;44.748;19.692;2022-08-21T00:28:28;29.60;51.80
64255;DHT22;50593;44.748;19.692;2022-08-21T00:28:48;29.60;51.80
64255;DHT22;50593;44.748;19.692;2022-08-21T00:29:09;29.60;52.00
64255;DHT22;50593;44.748;19.692;2022-08-21T00:29:30;29.60;51.80
64255;DHT22;50593;44.748;19.692;2022-08-21T00:29:50;29.60;51.80
64255;DHT22;50593;44.748;19.692;2022-08-21T00:30:13;29.60;51.90
64255;DHT22;50593;44.748;19.692;2022-08-21T00:30:34;29.60;51.90
64255;DHT22;50593;44.748;19.692;2022-08-21T00:30:55;29.60;52.20
64255;DHT22;50593;44.748;19.692;2022-08-21T00:31:16;29.60;52.10
64255;DHT22;50593;44.748;19.692;2022-08-21T00:31:38;29.60;52.10
64255;DHT22;50593;44.748;19.692;2022-08-21T00:31:58;29.60;52.00
64255;DHT22;50593;44.748;19.692;2022-08-21T00:32:20;29.60;52.00
64255;DHT22;50593;44.748;19.692;2022-08-21T00:33:02;29.60;52.00
64255;DHT22;50593;44.748;19.692;2022-08-21T00:33:23;29.60;52.00
64255;DHT22;50593;44.748;19.692;2022-08-21T00:33:44;29.60;52.00
64255;DHT22;50593;44.748;19.692;2022-08-21T00:34:26;29.60;52.00
64255;DHT22;50593;44.748;19.692;2022-08-21T00:34:47;29.60;52.00
64255;DHT22;50593;44.748;19.692;2022-08-21T00:35:08;29.60;52.10
64255;DHT22;50593;44.748;19.692;2022-08-21T00:35:31;29.60;52.10
64255;DHT22;50593;44.748;19.692;2022-08-21T00:35:52;29.60;52.00
64255;DHT22;50593;44.748;19.692;2022-08-21T00:36:33;29.60;52.00
64255;DHT22;50593;44.748;19.692;2022-08-21T00:36:54;29.60;52.10
64255;DHT22;50593;44.748;19.692;2022-08-21T00:37:15;29.60;52.10
64255;DHT22;50593;44.748;19.692;2022-08-21T00:37:35;29.70;52.20
64255;DHT22;50593;44.748;19.692;2022-08-21T00:37:56;29.60;52.20
64255;DHT22;50593;44.748;19.692;2022-08-21T00:38:17;29.60;52.30
64255;DHT22;50593;44.748;19.692;2022-08-21T00:38:38;29.60;52.40
64255;DHT22;50593;44.748;19.692;2022-08-21T00:38:58;29.60;52.30
64255;DHT22;50593;44.748;19.692;2022-08-21T00:39:19;29.60;52.40
64255;DHT22;50593;44.748;19.692;2022-08-21T00:39:40;29.60;52.40
64255;DHT22;50593;44.748;19.692;2022-08-21T00:40:23;29.60;52.30
64255;DHT22;50593;44.748;19.692;2022-08-21T00:40:46;29.60;52.30
64255;DHT22;50593;44.748;19.692;2022-08-21T00:41:08;29.60;52.30
64255;DHT22;50593;44.748;19.692;2022-08-21T00:41:29;29.60;52.50
64255;DHT22;50593;44.748;19.692;2022-08-21T00:41:49;29.60;52.30
64255;DHT22;50593;44.748;19.692;2022-08-21T00:42:11;29.60;52.30
64255;DHT22;50593;44.748;19.692;2022-08-21T00:42:35;29.60;52.40
64255;DHT22;50593;44.748;19.692;2022-08-21T00:42:55;29.60;52.50
64255;DHT22;50593;44.748;19.692;2022-08-21T00:43:23;29.60;52.50
64255;DHT22;50593;44.748;19.692;2022-08-21T00:43:44;29.60;52.50
64255;DHT22;50593;44.748;19.692;2022-08-21T00:44:07;29.60;52.50
64255;DHT22;50593;44.748;19.692;2022-08-21T00:44:27;29.60;52.50
64255;DHT22;50593;44.748;19.692;2022-08-21T00:45:12;29.60;52.40
64255;DHT22;50593;44.748;19.692;2022-08-21T00:45:33;29.50;52.30
64255;DHT22;50593;44.748;19.692;2022-08-21T00:45:54;29.50;52.30
64255;DHT22;50593;44.748;19.692;2022-08-21T00:46:16;29.60;52.40
64255;DHT22;50593;44.748;19.692;2022-08-21T00:46:37;29.50;52.30
64255;DHT22;50593;44.748;19.692;2022-08-21T00:46:58;29.50;52.30
64255;DHT22;50593;44.748;19.692;2022-08-21T00:47:19;29.50;52.50
64255;DHT22;50593;44.748;19.692;2022-08-21T00:47:39;29.50;52.40
64255;DHT22;50593;44.748;19.692;2022-08-21T00:48:00;29.50;52.50
64255;DHT22;50593;44.748;19.692;2022-08-21T00:48:41;29.50;52.60
64255;DHT22;50593;44.748;19.692;2022-08-21T00:49:03;29.50;52.60
64255;DHT22;50593;44.748;19.692;2022-08-21T00:49:25;29.50;52.70
64255;DHT22;50593;44.748;19.692;2022-08-21T00:49:45;29.60;52.80
64255;DHT22;50593;44.748;19.692;2022-08-21T00:50:06;29.60;52.70
64255;DHT22;50593;44.748;19.692;2022-08-21T00:50:29;29.60;52.70
64255;DHT22;50593;44.748;19.692;2022-08-21T00:51:46;29.50;52.50
64255;DHT22;50593;44.748;19.692;2022-08-21T00:52:11;29.50;52.70
64255;DHT22;50593;44.748;19.692;2022-08-21T00:52:33;29.50;52.80
64255;DHT22;50593;44.748;19.692;2022-08-21T00:52:55;29.50;52.60
64255;DHT22;50593;44.748;19.692;2022-08-21T00:53:16;29.50;52.60
64255;DHT22;50593;44.748;19.692;2022-08-21T00:53:37;29.50;52.60
64255;DHT22;50593;44.748;19.692;2022-08-21T00:54:20;29.50;52.70
64255;DHT22;50593;44.748;19.692;2022-08-21T00:55:04;29.50;52.70
64255;DHT22;50593;44.748;19.692;2022-08-21T00:55:46;29.50;52.80
64255;DHT22;50593;44.748;19.692;2022-08-21T00:56:07;29.50;53.00
64255;DHT22;50593;44.748;19.692;2022-08-21T00:56:29;29.50;52.90
64255;DHT22;50593;44.748;19.692;2022-08-21T00:56:51;29.50;52.80
64255;DHT22;50593;44.748;19.692;2022-08-21T00:57:19;29.50;52.80
64255;DHT22;50593;44.748;19.692;2022-08-21T00:58:02;29.50;52.80
64255;DHT22;50593;44.748;19.692;2022-08-21T00:58:24;29.50;52.70
64255;DHT22;50593;44.748;19.692;2022-08-21T00:58:46;29.50;52.90
64255;DHT22;50593;44.748;19.692;2022-08-21T00:59:07;29.50;52.80
64255;DHT22;50593;44.748;19.692;2022-08-21T00:59:29;29.50;52.90
64255;DHT22;50593;44.748;19.692;2022-08-21T00:59:53;29.50;52.90
64255;DHT22;50593;44.748;19.692;2022-08-21T01:00:15;29.50;52.80
64255;DHT22;50593;44.748;19.692;2022-08-21T01:01:00;29.50;52.80
64255;DHT22;50593;44.748;19.692;2022-08-21T01:01:21;29.50;52.80
64255;DHT22;50593;44.748;19.692;2022-08-21T01:01:42;29.50;52.90
64255;DHT22;50593;44.748;19.692;2022-08-21T01:02:04;29.50;52.90
64255;DHT22;50593;44.748;19.692;2022-08-21T01:02:25;29.50;53.00
64255;DHT22;50593;44.748;19.692;2022-08-21T01:02:46;29.50;52.90
64255;DHT22;50593;44.748;19.692;2022-08-21T01:03:11;29.50;52.90
64255;DHT22;50593;44.748;19.692;2022-08-21T01:03:33;29.50;53.00
64255;DHT22;50593;44.748;19.692;2022-08-21T01:03:53;29.50;52.80
64255;DHT22;50593;44.748;19.692;2022-08-21T01:04:14;29.50;52.80
64255;DHT22;50593;44.748;19.692;2022-08-21T01:04:36;29.50;52.80
64255;DHT22;50593;44.748;19.692;2022-08-21T01:04:57;29.50;53.00
64255;DHT22;50593;44.748;19.692;2022-08-21T01:05:18;29.50;53.00
64255;DHT22;50593;44.748;19.692;2022-08-21T01:05:39;29.50;52.80
64255;DHT22;50593;44.748;19.692;2022-08-21T01:06:43;29.50;52.90
64255;DHT22;50593;44.748;19.692;2022-08-21T01:07:04;29.40;52.80
64255;DHT22;50593;44.748;19.692;2022-08-21T01:07:25;29.50;52.90
64255;DHT22;50593;44.748;19.692;2022-08-21T01:07:45;29.40;52.90
64255;DHT22;50593;44.748;19.692;2022-08-21T01:08:06;29.50;52.80
64255;DHT22;50593;44.748;19.692;2022-08-21T01:08:27;29.40;52.80
64255;DHT22;50593;44.748;19.692;2022-08-21T01:08:49;29.40;52.80
64255;DHT22;50593;44.748;19.692;2022-08-21T01:09:11;29.40;52.90
64255;DHT22;50593;44.748;19.692;2022-08-21T01:09:31;29.40;53.00
64255;DHT22;50593;44.748;19.692;2022-08-21T01:09:52;29.40;53.00
64255;DHT22;50593;44.748;19.692;2022-08-21T01:10:13;29.40;53.00
64255;DHT22;50593;44.748;19.692;2022-08-21T01:10:34;29.40;53.00
64255;DHT22;50593;44.748;19.692;2022-08-21T01:10:55;29.40;53.00
64255;DHT22;50593;44.748;19.692;2022-08-21T01:11:17;29.40;53.10
64255;DHT22;50593;44.748;19.692;2022-08-21T01:11:37;29.40;53.20
64255;DHT22;50593;44.748;19.692;2022-08-21T01:11:58;29.40;53.40
64255;DHT22;50593;44.748;19.692;2022-08-21T01:12:19;29.40;53.10
64255;DHT22;50593;44.748;19.692;2022-08-21T01:12:39;29.40;53.00
64255;DHT22;50593;44.748;19.692;2022-08-21T01:13:22;29.40;53.00
64255;DHT22;50593;44.748;19.692;2022-08-21T01:14:06;29.40;53.00
64255;DHT22;50593;44.748;19.692;2022-08-21T01:14:27;29.40;53.00
64255;DHT22;50593;44.748;19.692;2022-08-21T01:14:48;29.40;53.20
64255;DHT22;50593;44.748;19.692;2022-08-21T01:15:10;29.40;53.10
64255;DHT22;50593;44.748;19.692;2022-08-21T01:15:52;29.40;53.30
64255;DHT22;50593;44.748;19.692;2022-08-21T01:16:15;29.40;53.40
64255;DHT22;50593;44.748;19.692;2022-08-21T01:16:36;29.40;53.20
64255;DHT22;50593;44.748;19.692;2022-08-21T01:16:57;29.40;53.40
64255;DHT22;50593;44.748;19.692;2022-08-21T01:17:18;29.40;53.20
64255;DHT22;50593;44.748;19.692;2022-08-21T01:18:01;29.40;53.30
64255;DHT22;50593;44.748;19.692;2022-08-21T01:18:23;29.40;53.30
64255;DHT22;50593;44.748;19.692;2022-08-21T01:18:44;29.40;53.10
64255;DHT22;50593;44.748;19.692;2022-08-21T01:19:06;29.40;53.10
64255;DHT22;50593;44.748;19.692;2022-08-21T01:19:27;29.40;53.10
64255;DHT22;50593;44.748;19.692;2022-08-21T01:19:47;29.40;53.20
64255;DHT22;50593;44.748;19.692;2022-08-21T01:20:09;29.40;53.20
64255;DHT22;50593;44.748;19.692;2022-08-21T01:21:17;29.40;53.30
64255;DHT22;50593;44.748;19.692;2022-08-21T01:21:38;29.40;53.20
64255;DHT22;50593;44.748;19.692;2022-08-21T01:21:59;29.40;53.20
64255;DHT22;50593;44.748;19.692;2022-08-21T01:22:40;29.40;53.60
64255;DHT22;50593;44.748;19.692;2022-08-21T01:23:02;29.40;53.30
64255;DHT22;50593;44.748;19.692;2022-08-21T01:23:23;29.40;53.30
64255;DHT22;50593;44.748;19.692;2022-08-21T01:23:45;29.40;53.30
64255;DHT22;50593;44.748;19.692;2022-08-21T01:24:06;29.40;53.20
64255;DHT22;50593;44.748;19.692;2022-08-21T01:24:27;29.40;53.40
64255;DHT22;50593;44.748;19.692;2022-08-21T01:24:47;29.40;53.40
64255;DHT22;50593;44.748;19.692;2022-08-21T01:25:09;29.30;53.30
64255;DHT22;50593;44.748;19.692;2022-08-21T01:25:50;29.40;53.30
64255;DHT22;50593;44.748;19.692;2022-08-21T01:26:12;29.40;53.20
64255;DHT22;50593;44.748;19.692;2022-08-21T01:26:33;29.40;53.20
64255;DHT22;50593;44.748;19.692;2022-08-21T01:27:18;29.40;53.20
64255;DHT22;50593;44.748;19.692;2022-08-21T01:27:39;29.30;53.20
64255;DHT22;50593;44.748;19.692;2022-08-21T01:28:01;29.40;53.20
64255;DHT22;50593;44.748;19.692;2022-08-21T01:28:24;29.40;53.20
64255;DHT22;50593;44.748;19.692;2022-08-21T01:28:50;29.30;53.10
64255;DHT22;50593;44.748;19.692;2022-08-21T01:30:18;29.40;53.20
64255;DHT22;50593;44.748;19.692;2022-08-21T01:31:21;29.40;53.40
64255;DHT22;50593;44.748;19.692;2022-08-21T01:31:42;29.40;53.30
64255;DHT22;50593;44.748;19.692;2022-08-21T01:32:05;29.40;53.30
64255;DHT22;50593;44.748;19.692;2022-08-21T01:32:26;29.40;53.30
64255;DHT22;50593;44.748;19.692;2022-08-21T01:32:47;29.40;53.30
64255;DHT22;50593;44.748;19.692;2022-08-21T01:33:08;29.40;53.40
64255;DHT22;50593;44.748;19.692;2022-08-21T01:33:28;29.40;53.50
64255;DHT22;50593;44.748;19.692;2022-08-21T01:33:49;29.40;53.50
64255;DHT22;50593;44.748;19.692;2022-08-21T01:34:51;29.40;53.30
64255;DHT22;50593;44.748;19.692;2022-08-21T01:35:12;29.40;53.30
64255;DHT22;50593;44.748;19.692;2022-08-21T01:35:34;29.40;53.20
64255;DHT22;50593;44.748;19.692;2022-08-21T01:35:54;29.40;53.30
64255;DHT22;50593;44.748;19.692;2022-08-21T01:36:16;29.30;53.20
64255;DHT22;50593;44.748;19.692;2022-08-21T01:36:37;29.40;53.30
64255;DHT22;50593;44.748;19.692;2022-08-21T01:37:19;29.40;53.20
64255;DHT22;50593;44.748;19.692;2022-08-21T01:38:01;29.40;53.10
64255;DHT22;50593;44.748;19.692;2022-08-21T01:38:22;29.40;53.10
64255;DHT22;50593;44.748;19.692;2022-08-21T01:38:43;29.40;53.10
64255;DHT22;50593;44.748;19.692;2022-08-21T01:39:04;29.40;53.10
64255;DHT22;50593;44.748;19.692;2022-08-21T01:39:25;29.40;53.10
64255;DHT22;50593;44.748;19.692;2022-08-21T01:39:45;29.40;53.10
64255;DHT22;50593;44.748;19.692;2022-08-21T01:40:06;29.40;53.00
64255;DHT22;50593;44.748;19.692;2022-08-21T01:40:27;29.40;53.00
64255;DHT22;50593;44.748;19.692;2022-08-21T01:40:48;29.40;53.00
64255;DHT22;50593;44.748;19.692;2022-08-21T01:41:08;29.40;53.00
64255;DHT22;50593;44.748;19.692;2022-08-21T01:41:29;29.40;53.00
64255;DHT22;50593;44.748;19.692;2022-08-21T01:42:11;29.40;53.00
64255;DHT22;50593;44.748;19.692;2022-08-21T01:42:31;29.40;53.00
64255;DHT22;50593;44.748;19.692;2022-08-21T01:42:52;29.40;53.00
64255;DHT22;50593;44.748;19.692;2022-08-21T01:43:34;29.40;52.90
64255;DHT22;50593;44.748;19.692;2022-08-21T01:43:54;29.40;53.00
64255;DHT22;50593;44.748;19.692;2022-08-21T01:44:15;29.40;52.90
64255;DHT22;50593;44.748;19.692;2022-08-21T01:44:36;29.50;53.00
64255;DHT22;50593;44.748;19.692;2022-08-21T01:44:56;29.50;53.00
64255;DHT22;50593;44.748;19.692;2022-08-21T01:45:17;29.40;52.90
64255;DHT22;50593;44.748;19.692;2022-08-21T01:45:37;29.50;53.00
64255;DHT22;50593;44.748;19.692;2022-08-21T01:46:19;29.40;52.80
64255;DHT22;50593;44.748;19.692;2022-08-21T01:46:39;29.40;52.80
64255;DHT22;50593;44.748;19.692;2022-08-21T01:47:21;29.40;52.90
64255;DHT22;50593;44.748;19.692;2022-08-21T01:47:42;29.40;52.90
64255;DHT22;50593;44.748;19.692;2022-08-21T01:48:02;29.50;53.00
64255;DHT22;50593;44.748;19.692;2022-08-21T01:48:44;29.40;52.90
64255;DHT22;50593;44.748;19.692;2022-08-21T01:49:04;29.50;52.90
64255;DHT22;50593;44.748;19.692;2022-08-21T01:49:25;29.50;53.00
64255;DHT22;50593;44.748;19.692;2022-08-21T01:49:46;29.40;52.90
64255;DHT22;50593;44.748;19.692;2022-08-21T01:50:08;29.50;52.80
64255;DHT22;50593;44.748;19.692;2022-08-21T01:50:51;29.50;52.90
64255;DHT22;50593;44.748;19.692;2022-08-21T01:51:32;29.40;52.90
64255;DHT22;50593;44.748;19.692;2022-08-21T01:51:53;29.40;52.80
64255;DHT22;50593;44.748;19.692;2022-08-21T01:52:15;29.50;52.80
64255;DHT22;50593;44.748;19.692;2022-08-21T01:52:38;29.50;52.80
64255;DHT22;50593;44.748;19.692;2022-08-21T01:53:41;29.40;52.80
64255;DHT22;50593;44.748;19.692;2022-08-21T01:54:01;29.50;52.90
64255;DHT22;50593;44.748;19.692;2022-08-21T01:54:43;29.50;52.80
64255;DHT22;50593;44.748;19.692;2022-08-21T01:55:04;29.50;52.80
64255;DHT22;50593;44.748;19.692;2022-08-21T01:55:46;29.40;52.70
64255;DHT22;50593;44.748;19.692;2022-08-21T01:56:09;29.50;52.80
64255;DHT22;50593;44.748;19.692;2022-08-21T01:56:52;29.50;52.70
64255;DHT22;50593;44.748;19.692;2022-08-21T01:57:13;29.50;52.80
64255;DHT22;50593;44.748;19.692;2022-08-21T01:57:33;29.50;52.80
64255;DHT22;50593;44.748;19.692;2022-08-21T01:57:54;29.50;52.70
64255;DHT22;50593;44.748;19.692;2022-08-21T01:58:15;29.50;52.70
64255;DHT22;50593;44.748;19.692;2022-08-21T01:58:36;29.50;52.60
64255;DHT22;50593;44.748;19.692;2022-08-21T01:58:56;29.50;52.70
64255;DHT22;50593;44.748;19.692;2022-08-21T01:59:17;29.50;52.60
64255;DHT22;50593;44.748;19.692;2022-08-21T01:59:37;29.50;52.60
64255;DHT22;50593;44.748;19.692;2022-08-21T01:59:58;29.50;52.70
64255;DHT22;50593;44.748;19.692;2022-08-21T02:00:19;29.50;52.70
64255;DHT22;50593;44.748;19.692;2022-08-21T02:00:41;29.50;52.70
64255;DHT22;50593;44.748;19.692;2022-08-21T02:01:02;29.50;52.70
64255;DHT22;50593;44.748;19.692;2022-08-21T02:01:22;29.50;52.70
64255;DHT22;50593;44.748;19.692;2022-08-21T02:01:43;29.50;52.70
64255;DHT22;50593;44.748;19.692;2022-08-21T02:02:03;29.50;52.60
64255;DHT22;50593;44.748;19.692;2022-08-21T02:02:24;29.50;52.60
64255;DHT22;50593;44.748;19.692;2022-08-21T02:02:44;29.50;52.70
64255;DHT22;50593;44.748;19.692;2022-08-21T02:03:27;29.50;52.60
64255;DHT22;50593;44.748;19.692;2022-08-21T02:03:48;29.50;52.60
64255;DHT22;50593;44.748;19.692;2022-08-21T02:04:09;29.50;52.60
64255;DHT22;50593;44.748;19.692;2022-08-21T02:04:51;29.50;52.60
64255;DHT22;50593;44.748;19.692;2022-08-21T02:05:12;29.50;52.60
64255;DHT22;50593;44.748;19.692;2022-08-21T02:05:32;29.60;52.60
64255;DHT22;50593;44.748;19.692;2022-08-21T02:05:53;29.50;52.60
64255;DHT22;50593;44.748;19.692;2022-08-21T02:06:15;29.60;52.70
64255;DHT22;50593;44.748;19.692;2022-08-21T02:06:38;29.50;52.60
64255;DHT22;50593;44.748;19.692;2022-08-21T02:06:59;29.50;52.50
64255;DHT22;50593;44.748;19.692;2022-08-21T02:07:45;29.50;52.60
64255;DHT22;50593;44.748;19.692;2022-08-21T02:08:06;29.50;52.50
64255;DHT22;50593;44.748;19.692;2022-08-21T02:08:27;29.50;52.50
64255;DHT22;50593;44.748;19.692;2022-08-21T02:08:48;29.50;52.50
64255;DHT22;50593;44.748;19.692;2022-08-21T02:09:31;29.50;52.50
64255;DHT22;50593;44.748;19.692;2022-08-21T02:09:52;29.50;52.50
64255;DHT22;50593;44.748;19.692;2022-08-21T02:10:14;29.50;52.60
64255;DHT22;50593;44.748;19.692;2022-08-21T02:10:34;29.50;52.60
64255;DHT22;50593;44.748;19.692;2022-08-21T02:10:55;29.50;52.60
64255;DHT22;50593;44.748;19.692;2022-08-21T02:11:15;29.50;52.60
64255;DHT22;50593;44.748;19.692;2022-08-21T02:11:36;29.50;52.50
64255;DHT22;50593;44.748;19.692;2022-08-21T02:12:21;29.50;52.50
64255;DHT22;50593;44.748;19.692;2022-08-21T02:13:44;29.50;52.50
64255;DHT22;50593;44.748;19.692;2022-08-21T02:14:05;29.50;52.50
64255;DHT22;50593;44.748;19.692;2022-08-21T02:14:25;29.50;52.50
64255;DHT22;50593;44.748;19.692;2022-08-21T02:14:46;29.50;52.50
64255;DHT22;50593;44.748;19.692;2022-08-21T02:15:07;29.50;52.50
64255;DHT22;50593;44.748;19.692;2022-08-21T02:15:29;29.50;52.50
64255;DHT22;50593;44.748;19.692;2022-08-21T02:15:50;29.50;52.60
64255;DHT22;50593;44.748;19.692;2022-08-21T02:16:31;29.50;52.50
64255;DHT22;50593;44.748;19.692;2022-08-21T02:16:52;29.50;52.40
64255;DHT22;50593;44.748;19.692;2022-08-21T02:17:13;29.50;52.40
64255;DHT22;50593;44.748;19.692;2022-08-21T02:17:38;29.50;52.40
64255;DHT22;50593;44.748;19.692;2022-08-21T02:18:41;29.50;52.40
64255;DHT22;50593;44.748;19.692;2022-08-21T02:19:02;29.50;52.30
64255;DHT22;50593;44.748;19.692;2022-08-21T02:19:22;29.60;52.50
64255;DHT22;50593;44.748;19.692;2022-08-21T02:19:43;29.50;52.40
64255;DHT22;50593;44.748;19.692;2022-08-21T02:20:04;29.50;52.40
64255;DHT22;50593;44.748;19.692;2022-08-21T02:20:29;29.50;52.40
64255;DHT22;50593;44.748;19.692;2022-08-21T02:20:50;29.50;52.60
64255;DHT22;50593;44.748;19.692;2022-08-21T02:21:31;29.50;52.40
64255;DHT22;50593;44.748;19.692;2022-08-21T02:21:52;29.50;52.40
64255;DHT22;50593;44.748;19.692;2022-08-21T02:22:12;29.50;52.40
64255;DHT22;50593;44.748;19.692;2022-08-21T02:22:33;29.50;52.40
64255;DHT22;50593;44.748;19.692;2022-08-21T02:22:53;29.50;52.40
64255;DHT22;50593;44.748;19.692;2022-08-21T02:23:14;29.50;52.40
64255;DHT22;50593;44.748;19.692;2022-08-21T02:23:36;29.50;52.50
64255;DHT22;50593;44.748;19.692;2022-08-21T02:23:57;29.50;52.50
64255;DHT22;50593;44.748;19.692;2022-08-21T02:24:17;29.50;52.40
64255;DHT22;50593;44.748;19.692;2022-08-21T02:24:38;29.50;52.60
64255;DHT22;50593;44.748;19.692;2022-08-21T02:24:59;29.50;52.40
64255;DHT22;50593;44.748;19.692;2022-08-21T02:25:20;29.50;52.50
64255;DHT22;50593;44.748;19.692;2022-08-21T02:26:03;29.50;52.50
64255;DHT22;50593;44.748;19.692;2022-08-21T02:26:24;29.50;52.40
64255;DHT22;50593;44.748;19.692;2022-08-21T02:26:53;29.50;52.50
64255;DHT22;50593;44.748;19.692;2022-08-21T02:27:17;29.50;52.70
64255;DHT22;50593;44.748;19.692;2022-08-21T02:27:39;29.50;52.60
64255;DHT22;50593;44.748;19.692;2022-08-21T02:28:21;29.50;52.50
64255;DHT22;50593;44.748;19.692;2022-08-21T02:28:42;29.50;52.60
64255;DHT22;50593;44.748;19.692;2022-08-21T02:29:24;29.50;52.60
64255;DHT22;50593;44.748;19.692;2022-08-21T02:29:44;29.50;52.60
64255;DHT22;50593;44.748;19.692;2022-08-21T02:30:05;29.40;52.50
64255;DHT22;50593;44.748;19.692;2022-08-21T02:30:27;29.50;52.60
64255;DHT22;50593;44.748;19.692;2022-08-21T02:30:48;29.50;52.70
64255;DHT22;50593;44.748;19.692;2022-08-21T02:31:09;29.50;52.70
64255;DHT22;50593;44.748;19.692;2022-08-21T02:31:30;29.50;52.70
64255;DHT22;50593;44.748;19.692;2022-08-21T02:31:51;29.50;52.60
64255;DHT22;50593;44.748;19.692;2022-08-21T02:32:11;29.50;52.70
64255;DHT22;50593;44.748;19.692;2022-08-21T02:32:32;29.50;52.60
64255;DHT22;50593;44.748;19.692;2022-08-21T02:32:52;29.50;52.60
64255;DHT22;50593;44.748;19.692;2022-08-21T02:33:13;29.50;52.60
64255;DHT22;50593;44.748;19.692;2022-08-21T02:33:35;29.50;52.80
64255;DHT22;50593;44.748;19.692;2022-08-21T02:34:37;29.50;52.70
64255;DHT22;50593;44.748;19.692;2022-08-21T02:34:57;29.50;52.70
64255;DHT22;50593;44.748;19.692;2022-08-21T02:35:39;29.50;52.70
64255;DHT22;50593;44.748;19.692;2022-08-21T02:36:02;29.40;52.60
64255;DHT22;50593;44.748;19.692;2022-08-21T02:36:23;29.50;52.80
64255;DHT22;50593;44.748;19.692;2022-08-21T02:36:44;29.50;52.80
64255;DHT22;50593;44.748;19.692;2022-08-21T02:37:05;29.50;52.80
64255;DHT22;50593;44.748;19.692;2022-08-21T02:37:25;29.50;52.70
64255;DHT22;50593;44.748;19.692;2022-08-21T02:37:48;29.50;52.70
64255;DHT22;50593;44.748;19.692;2022-08-21T02:38:11;29.50;52.70
64255;DHT22;50593;44.748;19.692;2022-08-21T02:38:32;29.40;52.60